sensor_id;sensor_type;location;lat;lon;timestamp;P1;durP1;ratioP1;P2;durP2;ratioP2
67941;SDS011;54731;42.600;23.476;2023-03-19T00:02:00;6.53;;;3.00;;
67941;SDS011;54731;42.600;23.476;2023-03-19T00:04:26;5.53;;;2.88;;
67941;SDS011;54731;42.600;23.476;2023-03-19T00:06:51;4.38;;;2.20;;
67941;SDS011;54731;42.600;23.476;2023-03-19T00:09:18;5.32;;;2.45;;
67941;SDS011;54731;42.600;23.476;2023-03-19T00:11:44;4.00;;;2.30;;
67941;SDS011;54731;42.600;23.476;2023-03-19T00:14:10;3.87;;;1.70;;
67941;SDS011;54731;42.600;23.476;2023-03-19T00:16:35;4.27;;;2.03;;
67941;SDS011;54731;42.600;23.476;2023-03-19T00:19:00;4.27;;;1.80;;
67941;SDS011;54731;42.600;23.476;2023-03-19T00:21:27;5.50;;;2.13;;
67941;SDS011;54731;42.600;23.476;2023-03-19T00:23:52;3.70;;;1.80;;
67941;SDS011;54731;42.600;23.476;2023-03-19T00:26:18;2.97;;;1.83;;
67941;SDS011;54731;42.600;23.476;2023-03-19T00:28:43;4.07;;;1.70;;
67941;SDS011;54731;42.600;23.476;2023-03-19T00:31:10;7.40;;;2.05;;
67941;SDS011;54731;42.600;23.476;2023-03-19T00:33:36;3.60;;;1.90;;
67941;SDS011;54731;42.600;23.476;2023-03-19T00:36:02;2.92;;;1.20;;
67941;SDS011;54731;42.600;23.476;2023-03-19T00:38:28;4.28;;;1.60;;
67941;SDS011;54731;42.600;23.476;2023-03-19T00:40:54;6.50;;;2.40;;
67941;SDS011;54731;42.600;23.476;2023-03-19T00:43:19;4.87;;;2.20;;
67941;SDS011;54731;42.600;23.476;2023-03-19T00:45:45;4.17;;;2.07;;
67941;SDS011;54731;42.600;23.476;2023-03-19T00:48:10;3.70;;;1.47;;
67941;SDS011;54731;42.600;23.476;2023-03-19T00:50:35;4.13;;;2.03;;
67941;SDS011;54731;42.600;23.476;2023-03-19T00:53:00;3.67;;;1.90;;
67941;SDS011;54731;42.600;23.476;2023-03-19T00:55:26;7.27;;;3.37;;
67941;SDS011;54731;42.600;23.476;2023-03-19T00:57:51;10.43;;;4.67;;
67941;SDS011;54731;42.600;23.476;2023-03-19T01:00:17;14.73;;;7.07;;
67941;SDS011;54731;42.600;23.476;2023-03-19T01:02:43;8.10;;;4.15;;
67941;SDS011;54731;42.600;23.476;2023-03-19T01:05:08;3.92;;;2.58;;
67941;SDS011;54731;42.600;23.476;2023-03-19T01:07:34;4.07;;;2.43;;
67941;SDS011;54731;42.600;23.476;2023-03-19T01:09:59;5.10;;;2.73;;
67941;SDS011;54731;42.600;23.476;2023-03-19T01:12:24;7.20;;;3.10;;
67941;SDS011;54731;42.600;23.476;2023-03-19T01:14:50;5.50;;;2.40;;
67941;SDS011;54731;42.600;23.476;2023-03-19T01:17:15;5.17;;;2.00;;
67941;SDS011;54731;42.600;23.476;2023-03-19T01:19:41;4.65;;;2.17;;
67941;SDS011;54731;42.600;23.476;2023-03-19T01:22:06;5.33;;;1.70;;
67941;SDS011;54731;42.600;23.476;2023-03-19T01:24:31;5.23;;;1.77;;
67941;SDS011;54731;42.600;23.476;2023-03-19T01:26:57;6.03;;;1.97;;
67941;SDS011;54731;42.600;23.476;2023-03-19T01:29:22;3.50;;;1.97;;
67941;SDS011;54731;42.600;23.476;2023-03-19T01:31:47;4.33;;;2.23;;
67941;SDS011;54731;42.600;23.476;2023-03-19T01:34:13;3.90;;;2.08;;
67941;SDS011;54731;42.600;23.476;2023-03-19T01:36:38;3.63;;;2.03;;
67941;SDS011;54731;42.600;23.476;2023-03-19T01:39:04;3.63;;;1.70;;
67941;SDS011;54731;42.600;23.476;2023-03-19T01:41:29;3.27;;;1.53;;
67941;SDS011;54731;42.600;23.476;2023-03-19T01:43:54;4.22;;;1.77;;
67941;SDS011;54731;42.600;23.476;2023-03-19T01:46:26;5.87;;;2.37;;
67941;SDS011;54731;42.600;23.476;2023-03-19T01:49:05;3.90;;;1.65;;
67941;SDS011;54731;42.600;23.476;2023-03-19T01:51:34;3.25;;;1.80;;
67941;SDS011;54731;42.600;23.476;2023-03-19T01:54:07;6.97;;;2.22;;
67941;SDS011;54731;42.600;23.476;2023-03-19T01:56:36;4.43;;;1.90;;
67941;SDS011;54731;42.600;23.476;2023-03-19T01:59:04;4.35;;;1.92;;
67941;SDS011;54731;42.600;23.476;2023-03-19T02:01:36;4.50;;;1.90;;
67941;SDS011;54731;42.600;23.476;2023-03-19T02:04:07;6.85;;;2.03;;
67941;SDS011;54731;42.600;23.476;2023-03-19T02:06:33;4.93;;;2.03;;
67941;SDS011;54731;42.600;23.476;2023-03-19T02:08:59;5.57;;;2.22;;
67941;SDS011;54731;42.600;23.476;2023-03-19T02:11:25;6.13;;;2.00;;
67941;SDS011;54731;42.600;23.476;2023-03-19T02:13:51;4.60;;;2.20;;
67941;SDS011;54731;42.600;23.476;2023-03-19T02:16:16;5.53;;;1.87;;
67941;SDS011;54731;42.600;23.476;2023-03-19T02:18:42;3.67;;;2.00;;
67941;SDS011;54731;42.600;23.476;2023-03-19T02:21:09;6.22;;;2.50;;
67941;SDS011;54731;42.600;23.476;2023-03-19T02:26:31;6.25;;;2.72;;
67941;SDS011;54731;42.600;23.476;2023-03-19T02:28:57;3.50;;;1.47;;
67941;SDS011;54731;42.600;23.476;2023-03-19T02:31:23;3.13;;;1.63;;
67941;SDS011;54731;42.600;23.476;2023-03-19T02:33:58;5.50;;;1.98;;
67941;SDS011;54731;42.600;23.476;2023-03-19T02:36:25;3.97;;;1.70;;
67941;SDS011;54731;42.600;23.476;2023-03-19T02:38:56;4.00;;;1.77;;
67941;SDS011;54731;42.600;23.476;2023-03-19T02:41:24;7.35;;;2.38;;
67941;SDS011;54731;42.600;23.476;2023-03-19T02:43:50;3.28;;;1.52;;
67941;SDS011;54731;42.600;23.476;2023-03-19T02:46:16;4.40;;;1.90;;
67941;SDS011;54731;42.600;23.476;2023-03-19T02:48:41;5.60;;;1.63;;
67941;SDS011;54731;42.600;23.476;2023-03-19T02:51:06;3.57;;;1.50;;
67941;SDS011;54731;42.600;23.476;2023-03-19T02:53:32;3.25;;;1.65;;
67941;SDS011;54731;42.600;23.476;2023-03-19T02:55:57;3.27;;;1.47;;
67941;SDS011;54731;42.600;23.476;2023-03-19T02:58:22;7.77;;;1.97;;
67941;SDS011;54731;42.600;23.476;2023-03-19T03:00:48;5.43;;;1.83;;
67941;SDS011;54731;42.600;23.476;2023-03-19T03:03:13;5.37;;;2.00;;
67941;SDS011;54731;42.600;23.476;2023-03-19T03:05:38;8.83;;;3.37;;
67941;SDS011;54731;42.600;23.476;2023-03-19T03:08:04;11.27;;;5.00;;
67941;SDS011;54731;42.600;23.476;2023-03-19T03:10:30;10.93;;;4.35;;
67941;SDS011;54731;42.600;23.476;2023-03-19T03:12:57;2.90;;;1.65;;
67941;SDS011;54731;42.600;23.476;2023-03-19T03:15:23;5.45;;;1.63;;
67941;SDS011;54731;42.600;23.476;2023-03-19T03:17:48;4.07;;;2.00;;
67941;SDS011;54731;42.600;23.476;2023-03-19T03:20:14;5.00;;;2.20;;
67941;SDS011;54731;42.600;23.476;2023-03-19T03:22:40;4.60;;;2.07;;
67941;SDS011;54731;42.600;23.476;2023-03-19T03:25:06;4.80;;;1.92;;
67941;SDS011;54731;42.600;23.476;2023-03-19T03:27:31;3.47;;;1.83;;
67941;SDS011;54731;42.600;23.476;2023-03-19T03:29:57;5.35;;;2.10;;
67941;SDS011;54731;42.600;23.476;2023-03-19T03:32:23;4.80;;;1.87;;
67941;SDS011;54731;42.600;23.476;2023-03-19T03:34:48;5.82;;;1.95;;
67941;SDS011;54731;42.600;23.476;2023-03-19T03:37:13;7.97;;;3.47;;
67941;SDS011;54731;42.600;23.476;2023-03-19T03:39:39;9.97;;;3.77;;
67941;SDS011;54731;42.600;23.476;2023-03-19T03:42:04;4.70;;;2.33;;
67941;SDS011;54731;42.600;23.476;2023-03-19T03:44:30;6.10;;;2.63;;
67941;SDS011;54731;42.600;23.476;2023-03-19T03:46:55;5.87;;;2.70;;
67941;SDS011;54731;42.600;23.476;2023-03-19T03:49:20;5.10;;;2.17;;
67941;SDS011;54731;42.600;23.476;2023-03-19T03:51:46;5.43;;;1.88;;
67941;SDS011;54731;42.600;23.476;2023-03-19T03:54:11;5.37;;;1.80;;
67941;SDS011;54731;42.600;23.476;2023-03-19T03:56:36;6.13;;;2.13;;
67941;SDS011;54731;42.600;23.476;2023-03-19T03:59:02;4.03;;;1.93;;
67941;SDS011;54731;42.600;23.476;2023-03-19T04:01:27;3.30;;;1.97;;
67941;SDS011;54731;42.600;23.476;2023-03-19T04:03:52;2.95;;;1.70;;
67941;SDS011;54731;42.600;23.476;2023-03-19T04:06:18;3.00;;;1.90;;
67941;SDS011;54731;42.600;23.476;2023-03-19T04:08:46;7.55;;;2.08;;
67941;SDS011;54731;42.600;23.476;2023-03-19T04:11:12;5.55;;;2.13;;
67941;SDS011;54731;42.600;23.476;2023-03-19T04:13:37;4.10;;;2.27;;
67941;SDS011;54731;42.600;23.476;2023-03-19T04:16:06;3.50;;;2.10;;
67941;SDS011;54731;42.600;23.476;2023-03-19T04:18:33;5.75;;;2.25;;
67941;SDS011;54731;42.600;23.476;2023-03-19T04:20:58;5.95;;;2.00;;
67941;SDS011;54731;42.600;23.476;2023-03-19T04:23:24;5.43;;;2.40;;
67941;SDS011;54731;42.600;23.476;2023-03-19T04:25:49;3.33;;;2.27;;
67941;SDS011;54731;42.600;23.476;2023-03-19T04:28:15;5.57;;;2.03;;
67941;SDS011;54731;42.600;23.476;2023-03-19T04:30:40;5.57;;;2.35;;
67941;SDS011;54731;42.600;23.476;2023-03-19T04:33:06;6.37;;;2.87;;
67941;SDS011;54731;42.600;23.476;2023-03-19T04:35:31;31.23;;;7.07;;
67941;SDS011;54731;42.600;23.476;2023-03-19T04:37:56;25.97;;;5.67;;
67941;SDS011;54731;42.600;23.476;2023-03-19T04:40:22;9.70;;;3.20;;
67941;SDS011;54731;42.600;23.476;2023-03-19T04:42:47;5.63;;;2.70;;
67941;SDS011;54731;42.600;23.476;2023-03-19T04:45:12;5.20;;;2.00;;
67941;SDS011;54731;42.600;23.476;2023-03-19T04:47:38;4.90;;;2.20;;
67941;SDS011;54731;42.600;23.476;2023-03-19T04:50:04;4.40;;;2.38;;
67941;SDS011;54731;42.600;23.476;2023-03-19T04:52:31;4.50;;;1.80;;
67941;SDS011;54731;42.600;23.476;2023-03-19T04:54:56;5.00;;;2.20;;
67941;SDS011;54731;42.600;23.476;2023-03-19T04:57:21;15.73;;;7.23;;
67941;SDS011;54731;42.600;23.476;2023-03-19T04:59:47;19.77;;;9.13;;
67941;SDS011;54731;42.600;23.476;2023-03-19T05:02:12;33.30;;;13.07;;
67941;SDS011;54731;42.600;23.476;2023-03-19T05:04:37;15.17;;;6.60;;
67941;SDS011;54731;42.600;23.476;2023-03-19T05:07:02;39.77;;;13.70;;
67941;SDS011;54731;42.600;23.476;2023-03-19T05:09:28;41.70;;;14.17;;
67941;SDS011;54731;42.600;23.476;2023-03-19T05:11:53;16.83;;;6.60;;
67941;SDS011;54731;42.600;23.476;2023-03-19T05:14:19;7.33;;;3.30;;
67941;SDS011;54731;42.600;23.476;2023-03-19T05:16:44;4.90;;;2.10;;
67941;SDS011;54731;42.600;23.476;2023-03-19T05:19:09;3.43;;;2.23;;
67941;SDS011;54731;42.600;23.476;2023-03-19T05:21:35;4.30;;;2.27;;
67941;SDS011;54731;42.600;23.476;2023-03-19T05:24:01;3.97;;;2.28;;
67941;SDS011;54731;42.600;23.476;2023-03-19T05:26:26;5.17;;;2.40;;
67941;SDS011;54731;42.600;23.476;2023-03-19T05:28:51;7.40;;;2.70;;
67941;SDS011;54731;42.600;23.476;2023-03-19T05:31:17;5.10;;;3.00;;
67941;SDS011;54731;42.600;23.476;2023-03-19T05:33:42;8.30;;;3.90;;
67941;SDS011;54731;42.600;23.476;2023-03-19T05:36:07;7.47;;;3.40;;
67941;SDS011;54731;42.600;23.476;2023-03-19T05:38:33;5.83;;;2.90;;
67941;SDS011;54731;42.600;23.476;2023-03-19T05:41:02;5.53;;;3.10;;
67941;SDS011;54731;42.600;23.476;2023-03-19T05:43:28;4.40;;;2.53;;
67941;SDS011;54731;42.600;23.476;2023-03-19T05:45:53;6.23;;;2.30;;
67941;SDS011;54731;42.600;23.476;2023-03-19T05:48:19;10.83;;;4.50;;
67941;SDS011;54731;42.600;23.476;2023-03-19T05:50:44;7.90;;;4.15;;
67941;SDS011;54731;42.600;23.476;2023-03-19T05:53:09;8.90;;;3.50;;
67941;SDS011;54731;42.600;23.476;2023-03-19T05:55:35;18.13;;;5.83;;
67941;SDS011;54731;42.600;23.476;2023-03-19T05:58:00;12.90;;;4.90;;
67941;SDS011;54731;42.600;23.476;2023-03-19T06:00:25;12.80;;;4.50;;
67941;SDS011;54731;42.600;23.476;2023-03-19T06:02:51;12.17;;;4.80;;
67941;SDS011;54731;42.600;23.476;2023-03-19T06:05:16;15.53;;;6.63;;
67941;SDS011;54731;42.600;23.476;2023-03-19T06:07:41;17.17;;;9.80;;
67941;SDS011;54731;42.600;23.476;2023-03-19T06:10:08;24.75;;;11.75;;
67941;SDS011;54731;42.600;23.476;2023-03-19T06:12:34;28.42;;;13.52;;
67941;SDS011;54731;42.600;23.476;2023-03-19T06:14:59;28.90;;;15.03;;
67941;SDS011;54731;42.600;23.476;2023-03-19T06:17:25;28.38;;;13.85;;
67941;SDS011;54731;42.600;23.476;2023-03-19T06:19:50;18.17;;;7.83;;
67941;SDS011;54731;42.600;23.476;2023-03-19T06:22:15;17.93;;;8.53;;
67941;SDS011;54731;42.600;23.476;2023-03-19T06:24:41;12.33;;;6.53;;
67941;SDS011;54731;42.600;23.476;2023-03-19T06:27:06;22.50;;;9.80;;
67941;SDS011;54731;42.600;23.476;2023-03-19T06:29:31;19.27;;;7.37;;
67941;SDS011;54731;42.600;23.476;2023-03-19T06:31:57;17.33;;;7.30;;
67941;SDS011;54731;42.600;23.476;2023-03-19T06:34:22;13.20;;;6.17;;
67941;SDS011;54731;42.600;23.476;2023-03-19T06:36:47;12.43;;;6.20;;
67941;SDS011;54731;42.600;23.476;2023-03-19T06:39:13;13.63;;;6.68;;
67941;SDS011;54731;42.600;23.476;2023-03-19T06:41:39;13.43;;;6.23;;
67941;SDS011;54731;42.600;23.476;2023-03-19T06:44:04;12.68;;;6.38;;
67941;SDS011;54731;42.600;23.476;2023-03-19T06:46:30;12.10;;;5.93;;
67941;SDS011;54731;42.600;23.476;2023-03-19T06:48:56;15.77;;;6.67;;
67941;SDS011;54731;42.600;23.476;2023-03-19T06:51:21;17.10;;;9.10;;
67941;SDS011;54731;42.600;23.476;2023-03-19T06:53:46;17.43;;;7.77;;
67941;SDS011;54731;42.600;23.476;2023-03-19T06:56:12;13.73;;;7.13;;
67941;SDS011;54731;42.600;23.476;2023-03-19T06:58:37;10.83;;;6.87;;
67941;SDS011;54731;42.600;23.476;2023-03-19T07:01:02;18.27;;;7.97;;
67941;SDS011;54731;42.600;23.476;2023-03-19T07:03:29;14.20;;;6.65;;
67941;SDS011;54731;42.600;23.476;2023-03-19T07:05:55;13.90;;;7.28;;
67941;SDS011;54731;42.600;23.476;2023-03-19T07:08:20;13.03;;;6.87;;
67941;SDS011;54731;42.600;23.476;2023-03-19T07:10:46;17.05;;;7.78;;
67941;SDS011;54731;42.600;23.476;2023-03-19T07:13:12;29.55;;;13.30;;
67941;SDS011;54731;42.600;23.476;2023-03-19T07:15:37;18.87;;;9.93;;
67941;SDS011;54731;42.600;23.476;2023-03-19T07:18:02;14.47;;;7.20;;
67941;SDS011;54731;42.600;23.476;2023-03-19T07:20:28;13.43;;;6.90;;
67941;SDS011;54731;42.600;23.476;2023-03-19T07:22:53;31.30;;;10.32;;
67941;SDS011;54731;42.600;23.476;2023-03-19T07:25:19;27.33;;;10.13;;
67941;SDS011;54731;42.600;23.476;2023-03-19T07:27:44;17.90;;;8.50;;
67941;SDS011;54731;42.600;23.476;2023-03-19T07:30:10;17.25;;;8.15;;
67941;SDS011;54731;42.600;23.476;2023-03-19T07:32:36;14.43;;;7.70;;
67941;SDS011;54731;42.600;23.476;2023-03-19T07:35:02;15.40;;;7.93;;
67941;SDS011;54731;42.600;23.476;2023-03-19T07:37:27;11.30;;;6.40;;
67941;SDS011;54731;42.600;23.476;2023-03-19T07:39:53;10.20;;;6.37;;
67941;SDS011;54731;42.600;23.476;2023-03-19T07:42:18;12.83;;;6.40;;
67941;SDS011;54731;42.600;23.476;2023-03-19T07:44:43;13.30;;;6.90;;
67941;SDS011;54731;42.600;23.476;2023-03-19T07:47:08;12.73;;;6.40;;
67941;SDS011;54731;42.600;23.476;2023-03-19T07:49:34;12.90;;;6.90;;
67941;SDS011;54731;42.600;23.476;2023-03-19T07:51:59;14.10;;;7.03;;
67941;SDS011;54731;42.600;23.476;2023-03-19T07:54:24;14.75;;;7.22;;
67941;SDS011;54731;42.600;23.476;2023-03-19T07:56:49;16.90;;;7.10;;
67941;SDS011;54731;42.600;23.476;2023-03-19T07:59:15;12.67;;;6.83;;
67941;SDS011;54731;42.600;23.476;2023-03-19T08:01:40;16.03;;;7.73;;
67941;SDS011;54731;42.600;23.476;2023-03-19T08:04:05;14.67;;;7.63;;
67941;SDS011;54731;42.600;23.476;2023-03-19T08:06:31;14.17;;;7.80;;
67941;SDS011;54731;42.600;23.476;2023-03-19T08:08:56;14.07;;;8.10;;
67941;SDS011;54731;42.600;23.476;2023-03-19T08:11:21;10.83;;;7.33;;
67941;SDS011;54731;42.600;23.476;2023-03-19T08:13:47;10.67;;;7.50;;
67941;SDS011;54731;42.600;23.476;2023-03-19T08:16:12;14.48;;;6.40;;
67941;SDS011;54731;42.600;23.476;2023-03-19T08:18:37;18.00;;;7.50;;
67941;SDS011;54731;42.600;23.476;2023-03-19T08:21:03;11.37;;;6.10;;
67941;SDS011;54731;42.600;23.476;2023-03-19T08:23:28;11.97;;;6.00;;
67941;SDS011;54731;42.600;23.476;2023-03-19T08:25:54;12.50;;;5.95;;
67941;SDS011;54731;42.600;23.476;2023-03-19T08:28:19;12.07;;;5.80;;
67941;SDS011;54731;42.600;23.476;2023-03-19T08:30:44;8.57;;;5.17;;
67941;SDS011;54731;42.600;23.476;2023-03-19T08:33:10;8.40;;;5.20;;
67941;SDS011;54731;42.600;23.476;2023-03-19T08:35:36;10.70;;;5.88;;
67941;SDS011;54731;42.600;23.476;2023-03-19T08:38:02;8.45;;;5.07;;
67941;SDS011;54731;42.600;23.476;2023-03-19T08:40:27;9.70;;;5.47;;
67941;SDS011;54731;42.600;23.476;2023-03-19T08:42:53;11.38;;;5.72;;
67941;SDS011;54731;42.600;23.476;2023-03-19T08:45:18;11.17;;;5.60;;
67941;SDS011;54731;42.600;23.476;2023-03-19T08:47:44;12.10;;;6.47;;
67941;SDS011;54731;42.600;23.476;2023-03-19T08:50:10;12.10;;;6.40;;
67941;SDS011;54731;42.600;23.476;2023-03-19T08:52:35;12.70;;;6.05;;
67941;SDS011;54731;42.600;23.476;2023-03-19T08:55:01;9.80;;;5.40;;
67941;SDS011;54731;42.600;23.476;2023-03-19T08:57:26;10.02;;;5.32;;
67941;SDS011;54731;42.600;23.476;2023-03-19T08:59:53;9.10;;;5.32;;
67941;SDS011;54731;42.600;23.476;2023-03-19T09:02:18;10.50;;;5.67;;
67941;SDS011;54731;42.600;23.476;2023-03-19T09:04:44;12.33;;;5.57;;
67941;SDS011;54731;42.600;23.476;2023-03-19T09:07:09;8.80;;;4.90;;
67941;SDS011;54731;42.600;23.476;2023-03-19T09:09:35;9.20;;;5.07;;
67941;SDS011;54731;42.600;23.476;2023-03-19T09:12:01;12.40;;;5.97;;
67941;SDS011;54731;42.600;23.476;2023-03-19T09:14:26;10.17;;;6.57;;
67941;SDS011;54731;42.600;23.476;2023-03-19T09:16:51;8.57;;;5.03;;
67941;SDS011;54731;42.600;23.476;2023-03-19T09:19:16;11.00;;;5.43;;
67941;SDS011;54731;42.600;23.476;2023-03-19T09:21:42;13.73;;;6.13;;
67941;SDS011;54731;42.600;23.476;2023-03-19T09:24:07;10.50;;;6.23;;
67941;SDS011;54731;42.600;23.476;2023-03-19T09:26:32;13.80;;;6.23;;
67941;SDS011;54731;42.600;23.476;2023-03-19T09:28:58;11.47;;;5.83;;
67941;SDS011;54731;42.600;23.476;2023-03-19T09:31:23;9.77;;;5.67;;
67941;SDS011;54731;42.600;23.476;2023-03-19T09:33:49;11.32;;;6.07;;
67941;SDS011;54731;42.600;23.476;2023-03-19T09:36:14;8.93;;;5.93;;
67941;SDS011;54731;42.600;23.476;2023-03-19T09:38:40;15.02;;;7.05;;
67941;SDS011;54731;42.600;23.476;2023-03-19T09:41:14;15.07;;;7.40;;
67941;SDS011;54731;42.600;23.476;2023-03-19T09:44:12;11.50;;;6.10;;
67941;SDS011;54731;42.600;23.476;2023-03-19T09:51:54;11.63;;;6.82;;
67941;SDS011;54731;42.600;23.476;2023-03-19T09:56:53;13.38;;;6.70;;
67941;SDS011;54731;42.600;23.476;2023-03-19T09:59:23;12.57;;;7.55;;
67941;SDS011;54731;42.600;23.476;2023-03-19T10:01:58;14.30;;;7.85;;
67941;SDS011;54731;42.600;23.476;2023-03-19T10:04:44;15.63;;;7.93;;
67941;SDS011;54731;42.600;23.476;2023-03-19T10:15:32;16.50;;;7.78;;
67941;SDS011;54731;42.600;23.476;2023-03-19T10:18:04;15.25;;;6.63;;
67941;SDS011;54731;42.600;23.476;2023-03-19T10:20:42;11.30;;;7.07;;
67941;SDS011;54731;42.600;23.476;2023-03-19T10:23:23;14.60;;;7.68;;
67941;SDS011;54731;42.600;23.476;2023-03-19T10:25:57;15.65;;;6.97;;
67941;SDS011;54731;42.600;23.476;2023-03-19T10:28:25;11.13;;;6.63;;
67941;SDS011;54731;42.600;23.476;2023-03-19T10:31:36;13.82;;;6.55;;
67941;SDS011;54731;42.600;23.476;2023-03-19T10:37:01;13.77;;;6.65;;
67941;SDS011;54731;42.600;23.476;2023-03-19T10:39:27;10.18;;;6.40;;
67941;SDS011;54731;42.600;23.476;2023-03-19T10:44:34;13.55;;;6.32;;
67941;SDS011;54731;42.600;23.476;2023-03-19T10:47:09;8.75;;;6.00;;
67941;SDS011;54731;42.600;23.476;2023-03-19T10:49:39;10.57;;;5.57;;
67941;SDS011;54731;42.600;23.476;2023-03-19T10:52:08;9.43;;;5.87;;
67941;SDS011;54731;42.600;23.476;2023-03-19T10:54:43;12.68;;;6.30;;
67941;SDS011;54731;42.600;23.476;2023-03-19T10:57:17;8.70;;;6.13;;
67941;SDS011;54731;42.600;23.476;2023-03-19T10:59:46;13.45;;;7.80;;
67941;SDS011;54731;42.600;23.476;2023-03-19T11:02:19;12.17;;;5.67;;
67941;SDS011;54731;42.600;23.476;2023-03-19T11:04:46;9.43;;;4.47;;
67941;SDS011;54731;42.600;23.476;2023-03-19T11:07:11;10.25;;;5.50;;
67941;SDS011;54731;42.600;23.476;2023-03-19T11:09:43;12.70;;;6.03;;
67941;SDS011;54731;42.600;23.476;2023-03-19T11:12:16;10.85;;;6.90;;
67941;SDS011;54731;42.600;23.476;2023-03-19T11:14:45;12.43;;;6.82;;
67941;SDS011;54731;42.600;23.476;2023-03-19T11:19:54;10.25;;;5.88;;
67941;SDS011;54731;42.600;23.476;2023-03-19T11:22:24;12.93;;;5.97;;
67941;SDS011;54731;42.600;23.476;2023-03-19T11:24:55;13.00;;;6.65;;
67941;SDS011;54731;42.600;23.476;2023-03-19T11:27:41;11.75;;;7.18;;
67941;SDS011;54731;42.600;23.476;2023-03-19T11:30:12;13.48;;;6.93;;
67941;SDS011;54731;42.600;23.476;2023-03-19T11:32:52;21.75;;;8.48;;
67941;SDS011;54731;42.600;23.476;2023-03-19T11:38:29;11.52;;;6.68;;
67941;SDS011;54731;42.600;23.476;2023-03-19T11:41:15;13.70;;;7.53;;
67941;SDS011;54731;42.600;23.476;2023-03-19T11:43:50;12.15;;;6.13;;
67941;SDS011;54731;42.600;23.476;2023-03-19T11:51:46;9.70;;;5.80;;
67941;SDS011;54731;42.600;23.476;2023-03-19T12:05:19;9.95;;;5.95;;
67941;SDS011;54731;42.600;23.476;2023-03-19T12:07:57;7.13;;;5.68;;
67941;SDS011;54731;42.600;23.476;2023-03-19T12:13:05;10.53;;;6.20;;
67941;SDS011;54731;42.600;23.476;2023-03-19T12:15:44;9.45;;;6.18;;
67941;SDS011;54731;42.600;23.476;2023-03-19T12:29:43;10.48;;;5.97;;
67941;SDS011;54731;42.600;23.476;2023-03-19T12:35:06;11.23;;;5.68;;
67941;SDS011;54731;42.600;23.476;2023-03-19T12:37:37;9.23;;;6.25;;
67941;SDS011;54731;42.600;23.476;2023-03-19T12:40:25;8.98;;;5.68;;
67941;SDS011;54731;42.600;23.476;2023-03-19T12:42:59;7.82;;;5.18;;
67941;SDS011;54731;42.600;23.476;2023-03-19T12:48:04;12.60;;;5.80;;
67941;SDS011;54731;42.600;23.476;2023-03-19T12:50:36;8.02;;;5.70;;
67941;SDS011;54731;42.600;23.476;2023-03-19T12:53:04;11.43;;;5.68;;
67941;SDS011;54731;42.600;23.476;2023-03-19T12:55:39;7.72;;;6.13;;
67941;SDS011;54731;42.600;23.476;2023-03-19T12:58:13;10.50;;;6.07;;
67941;SDS011;54731;42.600;23.476;2023-03-19T13:01:02;7.60;;;5.07;;
67941;SDS011;54731;42.600;23.476;2023-03-19T13:06:19;7.50;;;5.70;;
67941;SDS011;54731;42.600;23.476;2023-03-19T13:11:50;9.40;;;5.03;;
67941;SDS011;54731;42.600;23.476;2023-03-19T13:19:24;8.25;;;5.63;;
67941;SDS011;54731;42.600;23.476;2023-03-19T13:22:10;10.77;;;4.45;;
67941;SDS011;54731;42.600;23.476;2023-03-19T13:24:41;7.07;;;4.50;;
67941;SDS011;54731;42.600;23.476;2023-03-19T13:27:08;7.60;;;4.90;;
67941;SDS011;54731;42.600;23.476;2023-03-19T13:29:57;7.78;;;4.75;;
67941;SDS011;54731;42.600;23.476;2023-03-19T13:32:47;9.30;;;5.40;;
67941;SDS011;54731;42.600;23.476;2023-03-19T13:40:51;7.73;;;4.27;;
67941;SDS011;54731;42.600;23.476;2023-03-19T13:48:35;7.45;;;3.67;;
67941;SDS011;54731;42.600;23.476;2023-03-19T13:53:37;11.27;;;9.03;;
67941;SDS011;54731;42.600;23.476;2023-03-19T13:56:16;8.80;;;4.53;;
67941;SDS011;54731;42.600;23.476;2023-03-19T13:58:47;7.07;;;3.53;;
67941;SDS011;54731;42.600;23.476;2023-03-19T14:01:57;3.87;;;2.80;;
67941;SDS011;54731;42.600;23.476;2023-03-19T14:04:04;5.13;;;2.70;;
67941;SDS011;54731;42.600;23.476;2023-03-19T14:09:06;5.37;;;3.27;;
67941;SDS011;54731;42.600;23.476;2023-03-19T14:12:19;3.80;;;2.88;;
67941;SDS011;54731;42.600;23.476;2023-03-19T14:15:21;4.65;;;2.90;;
67941;SDS011;54731;42.600;23.476;2023-03-19T14:25:26;5.90;;;3.38;;
67941;SDS011;54731;42.600;23.476;2023-03-19T14:28:14;5.68;;;3.20;;
67941;SDS011;54731;42.600;23.476;2023-03-19T14:30:45;5.43;;;3.38;;
67941;SDS011;54731;42.600;23.476;2023-03-19T14:33:17;3.63;;;2.40;;
67941;SDS011;54731;42.600;23.476;2023-03-19T14:50:15;4.47;;;2.73;;
67941;SDS011;54731;42.600;23.476;2023-03-19T14:55:36;13.38;;;6.75;;
67941;SDS011;54731;42.600;23.476;2023-03-19T14:58:02;18.75;;;11.57;;
67941;SDS011;54731;42.600;23.476;2023-03-19T15:00:29;15.68;;;11.93;;
67941;SDS011;54731;42.600;23.476;2023-03-19T15:03:07;13.00;;;9.45;;
67941;SDS011;54731;42.600;23.476;2023-03-19T15:06:00;7.07;;;3.37;;
67941;SDS011;54731;42.600;23.476;2023-03-19T15:08:28;36.95;;;27.25;;
67941;SDS011;54731;42.600;23.476;2023-03-19T15:10:58;33.30;;;18.52;;
67941;SDS011;54731;42.600;23.476;2023-03-19T15:18:56;78.00;;;47.23;;
67941;SDS011;54731;42.600;23.476;2023-03-19T15:21:21;74.13;;;43.78;;
67941;SDS011;54731;42.600;23.476;2023-03-19T15:23:47;135.43;;;76.00;;
67941;SDS011;54731;42.600;23.476;2023-03-19T15:26:12;180.83;;;98.10;;
67941;SDS011;54731;42.600;23.476;2023-03-19T15:28:45;133.27;;;73.32;;
67941;SDS011;54731;42.600;23.476;2023-03-19T15:31:12;227.57;;;122.07;;
67941;SDS011;54731;42.600;23.476;2023-03-19T15:33:38;128.70;;;68.72;;
67941;SDS011;54731;42.600;23.476;2023-03-19T15:36:06;74.45;;;38.67;;
67941;SDS011;54731;42.600;23.476;2023-03-19T15:38:40;165.60;;;70.97;;
67941;SDS011;54731;42.600;23.476;2023-03-19T15:41:28;474.50;;;243.80;;
67941;SDS011;54731;42.600;23.476;2023-03-19T15:43:56;415.23;;;198.93;;
67941;SDS011;54731;42.600;23.476;2023-03-19T15:46:24;358.33;;;168.50;;
67941;SDS011;54731;42.600;23.476;2023-03-19T15:49:00;376.67;;;186.25;;
67941;SDS011;54731;42.600;23.476;2023-03-19T15:51:33;240.52;;;108.68;;
67941;SDS011;54731;42.600;23.476;2023-03-19T15:54:00;237.80;;;176.77;;
67941;SDS011;54731;42.600;23.476;2023-03-19T15:56:27;119.68;;;106.50;;
67941;SDS011;54731;42.600;23.476;2023-03-19T15:58:54;123.53;;;109.95;;
67941;SDS011;54731;42.600;23.476;2023-03-19T16:01:22;118.40;;;100.85;;
67941;SDS011;54731;42.600;23.476;2023-03-19T16:03:49;41.67;;;36.87;;
67941;SDS011;54731;42.600;23.476;2023-03-19T16:06:21;16.95;;;13.30;;
67941;SDS011;54731;42.600;23.476;2023-03-19T16:08:49;11.75;;;9.40;;
67941;SDS011;54731;42.600;23.476;2023-03-19T16:11:29;8.93;;;6.80;;
67941;SDS011;54731;42.600;23.476;2023-03-19T16:17:13;63.28;;;38.95;;
67941;SDS011;54731;42.600;23.476;2023-03-19T16:22:21;45.88;;;30.55;;
67941;SDS011;54731;42.600;23.476;2023-03-19T16:24:49;136.27;;;63.80;;
67941;SDS011;54731;42.600;23.476;2023-03-19T16:27:20;153.23;;;63.22;;
67941;SDS011;54731;42.600;23.476;2023-03-19T16:29:55;95.45;;;38.75;;
67941;SDS011;54731;42.600;23.476;2023-03-19T16:32:24;94.28;;;38.58;;
67941;SDS011;54731;42.600;23.476;2023-03-19T16:47:39;61.75;;;27.40;;
67941;SDS011;54731;42.600;23.476;2023-03-19T16:50:05;115.78;;;42.22;;
67941;SDS011;54731;42.600;23.476;2023-03-19T16:52:30;83.90;;;31.60;;
67941;SDS011;54731;42.600;23.476;2023-03-19T16:54:57;149.27;;;53.63;;